sensor_id;sensor_type;location;lat;lon;timestamp;temperature;humidity
72288;SHT31;60221;45.696;16.076;2022-08-01T00:01:27;21.76;61.60
72288;SHT31;60221;45.696;16.076;2022-08-01T00:03:53;21.62;62.20
72288;SHT31;60221;45.696;16.076;2022-08-01T00:06:19;22.02;64.12
72288;SHT31;60221;45.696;16.076;2022-08-01T00:08:45;23.03;64.83
72288;SHT31;60221;45.696;16.076;2022-08-01T00:11:12;23.81;63.65
72288;SHT31;60221;45.696;16.076;2022-08-01T00:13:39;24.64;60.14
72288;SHT31;60221;45.696;16.076;2022-08-01T00:16:05;24.52;56.78
72288;SHT31;60221;45.696;16.076;2022-08-01T00:18:32;23.82;56.80
72288;SHT31;60221;45.696;16.076;2022-08-01T00:20:58;23.26;57.59
72288;SHT31;60221;45.696;16.076;2022-08-01T00:23:24;22.86;58.38
72288;SHT31;60221;45.696;16.076;2022-08-01T00:25:50;22.59;59.29
72288;SHT31;60221;45.696;16.076;2022-08-01T00:28:16;22.33;59.96
72288;SHT31;60221;45.696;16.076;2022-08-01T00:30:42;22.14;60.69
72288;SHT31;60221;45.696;16.076;2022-08-01T00:33:08;21.96;61.24
72288;SHT31;60221;45.696;16.076;2022-08-01T00:35:34;21.79;61.93
72288;SHT31;60221;45.696;16.076;2022-08-01T00:38:00;21.64;62.53
72288;SHT31;60221;45.696;16.076;2022-08-01T00:40:26;22.41;66.55
72288;SHT31;60221;45.696;16.076;2022-08-01T00:42:52;23.60;63.70
72288;SHT31;60221;45.696;16.076;2022-08-01T00:45:19;24.26;61.59
72288;SHT31;60221;45.696;16.076;2022-08-01T00:47:45;24.80;58.61
72288;SHT31;60221;45.696;16.076;2022-08-01T00:50:11;24.56;56.29
72288;SHT31;60221;45.696;16.076;2022-08-01T00:52:39;23.85;56.57
72288;SHT31;60221;45.696;16.076;2022-08-01T00:55:08;23.30;57.57
72288;SHT31;60221;45.696;16.076;2022-08-01T00:57:35;22.91;58.54
72288;SHT31;60221;45.696;16.076;2022-08-01T01:00:01;22.64;59.37
72288;SHT31;60221;45.696;16.076;2022-08-01T01:02:27;22.37;60.04
72288;SHT31;60221;45.696;16.076;2022-08-01T01:04:53;22.16;60.63
72288;SHT31;60221;45.696;16.076;2022-08-01T01:07:29;22.00;61.16
72288;SHT31;60221;45.696;16.076;2022-08-01T01:10:41;21.81;61.70
72288;SHT31;60221;45.696;16.076;2022-08-01T01:13:20;21.64;62.64
72288;SHT31;60221;45.696;16.076;2022-08-01T01:15:51;22.25;64.88
72288;SHT31;60221;45.696;16.076;2022-08-01T01:18:33;23.60;65.56
72288;SHT31;60221;45.696;16.076;2022-08-01T01:29:46;23.22;58.03
72288;SHT31;60221;45.696;16.076;2022-08-01T01:32:44;22.75;58.95
72288;SHT31;60221;45.696;16.076;2022-08-01T01:35:17;22.36;59.66
72288;SHT31;60221;45.696;16.076;2022-08-01T01:37:46;22.07;60.53
72288;SHT31;60221;45.696;16.076;2022-08-01T01:40:15;21.86;61.32
72288;SHT31;60221;45.696;16.076;2022-08-01T01:42:44;21.65;62.08
72288;SHT31;60221;45.696;16.076;2022-08-01T01:45:13;21.82;63.34
72288;SHT31;60221;45.696;16.076;2022-08-01T01:47:42;22.71;65.26
72288;SHT31;60221;45.696;16.076;2022-08-01T01:50:11;23.61;62.94
72288;SHT31;60221;45.696;16.076;2022-08-01T01:52:42;24.15;60.93
72288;SHT31;60221;45.696;16.076;2022-08-01T01:55:11;24.52;58.67
72288;SHT31;60221;45.696;16.076;2022-08-01T01:57:43;24.22;56.49
72288;SHT31;60221;45.696;16.076;2022-08-01T02:00:12;23.50;57.09
72288;SHT31;60221;45.696;16.076;2022-08-01T02:02:41;22.92;58.02
72288;SHT31;60221;45.696;16.076;2022-08-01T02:05:11;22.50;58.80
72288;SHT31;60221;45.696;16.076;2022-08-01T02:07:39;22.19;59.68
72288;SHT31;60221;45.696;16.076;2022-08-01T02:10:08;21.89;60.47
72288;SHT31;60221;45.696;16.076;2022-08-01T02:12:39;21.66;61.23
72288;SHT31;60221;45.696;16.076;2022-08-01T02:15:08;21.47;61.82
72288;SHT31;60221;45.696;16.076;2022-08-01T02:17:41;21.24;62.38
72288;SHT31;60221;45.696;16.076;2022-08-01T02:20:11;21.61;63.84
72288;SHT31;60221;45.696;16.076;2022-08-01T02:22:55;22.31;64.33
72288;SHT31;60221;45.696;16.076;2022-08-01T02:25:48;22.75;62.55
72288;SHT31;60221;45.696;16.076;2022-08-01T02:28:35;23.09;61.61
72288;SHT31;60221;45.696;16.076;2022-08-01T02:31:06;23.32;60.67
72288;SHT31;60221;45.696;16.076;2022-08-01T02:33:44;23.64;59.35
72288;SHT31;60221;45.696;16.076;2022-08-01T02:36:12;23.39;57.60
72288;SHT31;60221;45.696;16.076;2022-08-01T02:38:45;22.76;58.10
72288;SHT31;60221;45.696;16.076;2022-08-01T02:41:19;22.29;58.79
72288;SHT31;60221;45.696;16.076;2022-08-01T02:43:50;21.89;59.72
72288;SHT31;60221;45.696;16.076;2022-08-01T02:46:23;21.58;60.37
72288;SHT31;60221;45.696;16.076;2022-08-01T02:48:52;21.33;61.19
72288;SHT31;60221;45.696;16.076;2022-08-01T02:51:23;21.13;61.92
72288;SHT31;60221;45.696;16.076;2022-08-01T02:53:54;20.89;62.56
72288;SHT31;60221;45.696;16.076;2022-08-01T02:56:22;21.30;64.62
72288;SHT31;60221;45.696;16.076;2022-08-01T02:58:51;22.19;65.06
72288;SHT31;60221;45.696;16.076;2022-08-01T03:01:19;22.89;62.88
72288;SHT31;60221;45.696;16.076;2022-08-01T03:03:47;23.27;60.89
72288;SHT31;60221;45.696;16.076;2022-08-01T03:06:15;23.51;59.10
72288;SHT31;60221;45.696;16.076;2022-08-01T03:08:44;23.24;57.21
72288;SHT31;60221;45.696;16.076;2022-08-01T03:11:13;22.57;57.62
72288;SHT31;60221;45.696;16.076;2022-08-01T03:13:43;22.04;58.37
72288;SHT31;60221;45.696;16.076;2022-08-01T03:16:13;21.64;59.24
72288;SHT31;60221;45.696;16.076;2022-08-01T03:18:43;21.37;60.26
72288;SHT31;60221;45.696;16.076;2022-08-01T03:21:14;21.11;61.03
72288;SHT31;60221;45.696;16.076;2022-08-01T03:23:41;20.90;61.41
72288;SHT31;60221;45.696;16.076;2022-08-01T03:26:09;20.66;62.20
72288;SHT31;60221;45.696;16.076;2022-08-01T03:28:40;21.03;64.59
72288;SHT31;60221;45.696;16.076;2022-08-01T03:31:08;21.75;64.35
72288;SHT31;60221;45.696;16.076;2022-08-01T03:33:36;22.29;62.87
72288;SHT31;60221;45.696;16.076;2022-08-01T03:36:04;22.61;61.50
72288;SHT31;60221;45.696;16.076;2022-08-01T03:38:35;22.88;60.48
72288;SHT31;60221;45.696;16.076;2022-08-01T03:41:14;23.10;59.74
72288;SHT31;60221;45.696;16.076;2022-08-01T03:43:46;22.88;57.90
72288;SHT31;60221;45.696;16.076;2022-08-01T03:46:42;22.30;58.18
72288;SHT31;60221;45.696;16.076;2022-08-01T03:48:58;21.79;58.90
72288;SHT31;60221;45.696;16.076;2022-08-01T03:51:25;21.42;59.83
72288;SHT31;60221;45.696;16.076;2022-08-01T03:53:55;21.15;60.55
72288;SHT31;60221;45.696;16.076;2022-08-01T03:56:24;20.93;61.29
72288;SHT31;60221;45.696;16.076;2022-08-01T03:58:51;20.73;62.18
72288;SHT31;60221;45.696;16.076;2022-08-01T04:01:18;21.09;64.27
72288;SHT31;60221;45.696;16.076;2022-08-01T04:03:45;21.99;64.30
72288;SHT31;60221;45.696;16.076;2022-08-01T04:06:12;22.58;62.57
72288;SHT31;60221;45.696;16.076;2022-08-01T04:08:41;22.72;60.97
72288;SHT31;60221;45.696;16.076;2022-08-01T04:11:10;22.86;60.11
72288;SHT31;60221;45.696;16.076;2022-08-01T04:13:36;23.01;59.54
72288;SHT31;60221;45.696;16.076;2022-08-01T04:16:03;22.82;58.08
72288;SHT31;60221;45.696;16.076;2022-08-01T04:18:29;22.34;58.40
72288;SHT31;60221;45.696;16.076;2022-08-01T04:20:55;21.93;59.13
72288;SHT31;60221;45.696;16.076;2022-08-01T04:23:24;21.66;59.81
72288;SHT31;60221;45.696;16.076;2022-08-01T04:25:53;21.45;60.50
72288;SHT31;60221;45.696;16.076;2022-08-01T04:28:22;21.31;61.14
72288;SHT31;60221;45.696;16.076;2022-08-01T04:30:52;21.17;61.75
72288;SHT31;60221;45.696;16.076;2022-08-01T04:33:20;21.10;62.23
72288;SHT31;60221;45.696;16.076;2022-08-01T04:35:48;21.47;64.12
72288;SHT31;60221;45.696;16.076;2022-08-01T04:38:22;22.19;63.78
72288;SHT31;60221;45.696;16.076;2022-08-01T04:40:50;22.88;62.60
72288;SHT31;60221;45.696;16.076;2022-08-01T04:43:18;23.67;61.29
72288;SHT31;60221;45.696;16.076;2022-08-01T04:45:47;24.29;59.48
72288;SHT31;60221;45.696;16.076;2022-08-01T04:48:17;24.40;57.54
72288;SHT31;60221;45.696;16.076;2022-08-01T04:50:46;24.11;57.72
72288;SHT31;60221;45.696;16.076;2022-08-01T04:53:19;24.04;58.58
72288;SHT31;60221;45.696;16.076;2022-08-01T04:55:45;24.06;58.10
72288;SHT31;60221;45.696;16.076;2022-08-01T04:58:36;23.95;58.24
72288;SHT31;60221;45.696;16.076;2022-08-01T05:01:02;23.88;58.67
72288;SHT31;60221;45.696;16.076;2022-08-01T05:03:28;23.98;58.55
72288;SHT31;60221;45.696;16.076;2022-08-01T05:05:54;24.23;58.46
72288;SHT31;60221;45.696;16.076;2022-08-01T05:08:20;24.57;58.33
72288;SHT31;60221;45.696;16.076;2022-08-01T05:10:46;24.87;58.21
72288;SHT31;60221;45.696;16.076;2022-08-01T05:13:12;25.22;58.45
72288;SHT31;60221;45.696;16.076;2022-08-01T05:15:38;25.52;57.05
72288;SHT31;60221;45.696;16.076;2022-08-01T05:18:05;25.67;56.28
72288;SHT31;60221;45.696;16.076;2022-08-01T05:20:32;25.63;55.98
72288;SHT31;60221;45.696;16.076;2022-08-01T05:22:58;25.52;55.98
72288;SHT31;60221;45.696;16.076;2022-08-01T05:25:24;25.40;56.27
72288;SHT31;60221;45.696;16.076;2022-08-01T05:27:50;25.25;56.10
72288;SHT31;60221;45.696;16.076;2022-08-01T05:30:17;25.18;56.29
72288;SHT31;60221;45.696;16.076;2022-08-01T05:32:43;25.09;56.38
72288;SHT31;60221;45.696;16.076;2022-08-01T05:35:10;25.05;56.73
72288;SHT31;60221;45.696;16.076;2022-08-01T05:37:36;25.18;56.59
72288;SHT31;60221;45.696;16.076;2022-08-01T05:40:04;25.21;57.04
72288;SHT31;60221;45.696;16.076;2022-08-01T05:42:31;25.28;57.28
72288;SHT31;60221;45.696;16.076;2022-08-01T05:44:57;25.28;56.84
72288;SHT31;60221;45.696;16.076;2022-08-01T05:47:23;25.30;57.06
72288;SHT31;60221;45.696;16.076;2022-08-01T05:49:49;25.33;57.20
72288;SHT31;60221;45.696;16.076;2022-08-01T05:52:15;25.39;57.38
72288;SHT31;60221;45.696;16.076;2022-08-01T05:54:41;25.59;56.81
72288;SHT31;60221;45.696;16.076;2022-08-01T05:57:07;25.83;56.83
72288;SHT31;60221;45.696;16.076;2022-08-01T05:59:33;25.94;56.34
72288;SHT31;60221;45.696;16.076;2022-08-01T06:02:00;26.01;55.47
72288;SHT31;60221;45.696;16.076;2022-08-01T06:04:27;26.07;55.47
72288;SHT31;60221;45.696;16.076;2022-08-01T06:06:53;26.11;55.02
72288;SHT31;60221;45.696;16.076;2022-08-01T06:09:19;26.14;55.11
72288;SHT31;60221;45.696;16.076;2022-08-01T06:11:45;26.17;54.78
72288;SHT31;60221;45.696;16.076;2022-08-01T06:14:11;26.15;55.13
72288;SHT31;60221;45.696;16.076;2022-08-01T06:16:37;26.11;54.82
72288;SHT31;60221;45.696;16.076;2022-08-01T06:19:03;26.18;54.77
72288;SHT31;60221;45.696;16.076;2022-08-01T06:21:29;26.22;55.11
72288;SHT31;60221;45.696;16.076;2022-08-01T06:23:55;26.38;55.01
72288;SHT31;60221;45.696;16.076;2022-08-01T06:26:21;26.58;54.55
72288;SHT31;60221;45.696;16.076;2022-08-01T06:28:47;26.69;54.21
72288;SHT31;60221;45.696;16.076;2022-08-01T06:31:13;26.82;53.78
72288;SHT31;60221;45.696;16.076;2022-08-01T06:33:42;27.07;53.39
72288;SHT31;60221;45.696;16.076;2022-08-01T06:36:08;27.38;52.77
72288;SHT31;60221;45.696;16.076;2022-08-01T06:38:35;27.72;52.17
72288;SHT31;60221;45.696;16.076;2022-08-01T06:41:01;28.09;51.71
72288;SHT31;60221;45.696;16.076;2022-08-01T06:43:28;28.36;50.72
72288;SHT31;60221;45.696;16.076;2022-08-01T06:45:55;28.61;50.18
72288;SHT31;60221;45.696;16.076;2022-08-01T06:48:21;28.88;49.27
72288;SHT31;60221;45.696;16.076;2022-08-01T06:50:48;29.19;49.27
72288;SHT31;60221;45.696;16.076;2022-08-01T06:53:14;29.40;48.21
72288;SHT31;60221;45.696;16.076;2022-08-01T06:55:40;29.65;47.43
72288;SHT31;60221;45.696;16.076;2022-08-01T06:58:06;29.96;46.66
72288;SHT31;60221;45.696;16.076;2022-08-01T07:00:32;30.23;45.96
72288;SHT31;60221;45.696;16.076;2022-08-01T07:02:58;30.47;45.74
72288;SHT31;60221;45.696;16.076;2022-08-01T07:05:26;30.71;44.83
72288;SHT31;60221;45.696;16.076;2022-08-01T07:07:53;30.87;44.76
72288;SHT31;60221;45.696;16.076;2022-08-01T07:10:19;31.07;44.58
72288;SHT31;60221;45.696;16.076;2022-08-01T07:12:45;31.30;43.61
72288;SHT31;60221;45.696;16.076;2022-08-01T07:15:12;31.50;43.40
72288;SHT31;60221;45.696;16.076;2022-08-01T07:17:42;31.67;42.98
72288;SHT31;60221;45.696;16.076;2022-08-01T07:20:11;31.92;41.80
72288;SHT31;60221;45.696;16.076;2022-08-01T07:22:38;32.10;41.78
72288;SHT31;60221;45.696;16.076;2022-08-01T07:25:06;32.25;41.36
72288;SHT31;60221;45.696;16.076;2022-08-01T07:27:32;32.34;40.58
72288;SHT31;60221;45.696;16.076;2022-08-01T07:29:59;32.43;40.63
72288;SHT31;60221;45.696;16.076;2022-08-01T07:32:25;32.51;40.26
72288;SHT31;60221;45.696;16.076;2022-08-01T07:34:52;32.51;39.98
72288;SHT31;60221;45.696;16.076;2022-08-01T07:37:18;32.55;40.05
72288;SHT31;60221;45.696;16.076;2022-08-01T07:39:45;32.56;40.32
72288;SHT31;60221;45.696;16.076;2022-08-01T07:42:11;32.52;39.71
72288;SHT31;60221;45.696;16.076;2022-08-01T07:44:38;32.46;39.39
72288;SHT31;60221;45.696;16.076;2022-08-01T07:47:05;32.43;39.32
72288;SHT31;60221;45.696;16.076;2022-08-01T07:49:31;32.39;39.21
72288;SHT31;60221;45.696;16.076;2022-08-01T07:51:57;32.39;38.94
72288;SHT31;60221;45.696;16.076;2022-08-01T07:54:23;32.35;38.65
72288;SHT31;60221;45.696;16.076;2022-08-01T07:56:50;32.36;38.08
72288;SHT31;60221;45.696;16.076;2022-08-01T07:59:17;32.39;37.29
72288;SHT31;60221;45.696;16.076;2022-08-01T08:01:44;32.38;37.08
72288;SHT31;60221;45.696;16.076;2022-08-01T08:04:10;32.42;37.49
72288;SHT31;60221;45.696;16.076;2022-08-01T08:06:37;32.45;37.24
72288;SHT31;60221;45.696;16.076;2022-08-01T08:09:03;32.45;37.01
72288;SHT31;60221;45.696;16.076;2022-08-01T08:11:29;32.48;37.00
72288;SHT31;60221;45.696;16.076;2022-08-01T08:13:55;32.46;36.63
72288;SHT31;60221;45.696;16.076;2022-08-01T08:16:21;32.55;36.45
72288;SHT31;60221;45.696;16.076;2022-08-01T08:18:47;32.62;36.44
72288;SHT31;60221;45.696;16.076;2022-08-01T08:21:13;32.72;35.74
72288;SHT31;60221;45.696;16.076;2022-08-01T08:23:39;32.80;35.59
72288;SHT31;60221;45.696;16.076;2022-08-01T08:26:23;32.93;35.11
72288;SHT31;60221;45.696;16.076;2022-08-01T08:28:51;32.99;34.82
72288;SHT31;60221;45.696;16.076;2022-08-01T08:31:17;33.01;34.55
72288;SHT31;60221;45.696;16.076;2022-08-01T08:33:43;33.01;33.84
72288;SHT31;60221;45.696;16.076;2022-08-01T08:36:09;33.06;33.36
72288;SHT31;60221;45.696;16.076;2022-08-01T08:38:37;33.16;32.75
72288;SHT31;60221;45.696;16.076;2022-08-01T08:41:03;33.22;31.48
72288;SHT31;60221;45.696;16.076;2022-08-01T08:43:30;33.35;31.77
72288;SHT31;60221;45.696;16.076;2022-08-01T08:45:58;33.37;32.30
72288;SHT31;60221;45.696;16.076;2022-08-01T08:48:25;33.44;31.88
72288;SHT31;60221;45.696;16.076;2022-08-01T08:50:51;33.64;32.19
72288;SHT31;60221;45.696;16.076;2022-08-01T08:53:18;33.88;32.00
72288;SHT31;60221;45.696;16.076;2022-08-01T08:55:45;34.12;31.96
72288;SHT31;60221;45.696;16.076;2022-08-01T08:58:13;34.30;31.37
72288;SHT31;60221;45.696;16.076;2022-08-01T09:00:41;34.31;30.55
72288;SHT31;60221;45.696;16.076;2022-08-01T09:03:07;34.33;30.04
72288;SHT31;60221;45.696;16.076;2022-08-01T09:05:34;34.41;30.12
72288;SHT31;60221;45.696;16.076;2022-08-01T09:08:00;34.40;30.20
72288;SHT31;60221;45.696;16.076;2022-08-01T09:10:26;34.36;30.19
72288;SHT31;60221;45.696;16.076;2022-08-01T09:13:13;34.36;30.61
72288;SHT31;60221;45.696;16.076;2022-08-01T09:15:47;34.34;30.30
72288;SHT31;60221;45.696;16.076;2022-08-01T09:18:38;34.30;30.37
72288;SHT31;60221;45.696;16.076;2022-08-01T09:21:16;34.30;30.17
72288;SHT31;60221;45.696;16.076;2022-08-01T09:23:48;34.24;30.19
72288;SHT31;60221;45.696;16.076;2022-08-01T09:26:21;34.17;30.74
72288;SHT31;60221;45.696;16.076;2022-08-01T09:28:48;34.09;30.69
72288;SHT31;60221;45.696;16.076;2022-08-01T09:31:18;34.00;30.73
72288;SHT31;60221;45.696;16.076;2022-08-01T09:33:58;33.93;31.20
72288;SHT31;60221;45.696;16.076;2022-08-01T09:39:20;33.69;31.29
72288;SHT31;60221;45.696;16.076;2022-08-01T09:41:48;33.59;31.32
72288;SHT31;60221;45.696;16.076;2022-08-01T09:44:17;33.49;31.82
72288;SHT31;60221;45.696;16.076;2022-08-01T09:46:51;33.35;31.74
72288;SHT31;60221;45.696;16.076;2022-08-01T09:49:37;33.27;32.19
72288;SHT31;60221;45.696;16.076;2022-08-01T09:52:19;33.07;32.40
72288;SHT31;60221;45.696;16.076;2022-08-01T09:54:56;32.90;32.50
72288;SHT31;60221;45.696;16.076;2022-08-01T09:57:23;32.77;32.79
72288;SHT31;60221;45.696;16.076;2022-08-01T09:59:53;32.65;32.99
72288;SHT31;60221;45.696;16.076;2022-08-01T10:02:34;32.55;32.97
72288;SHT31;60221;45.696;16.076;2022-08-01T10:05:07;32.46;33.09
72288;SHT31;60221;45.696;16.076;2022-08-01T10:07:54;32.43;33.34
72288;SHT31;60221;45.696;16.076;2022-08-01T10:10:15;32.42;33.18
72288;SHT31;60221;45.696;16.076;2022-08-01T10:12:42;32.43;33.11
72288;SHT31;60221;45.696;16.076;2022-08-01T10:15:10;32.48;33.30
72288;SHT31;60221;45.696;16.076;2022-08-01T10:17:39;32.55;33.36
72288;SHT31;60221;45.696;16.076;2022-08-01T10:20:09;32.58;33.61
72288;SHT31;60221;45.696;16.076;2022-08-01T10:22:37;32.65;33.24
72288;SHT31;60221;45.696;16.076;2022-08-01T10:25:06;32.80;32.95
72288;SHT31;60221;45.696;16.076;2022-08-01T10:27:36;32.90;32.45
72288;SHT31;60221;45.696;16.076;2022-08-01T10:30:06;33.07;33.13
72288;SHT31;60221;45.696;16.076;2022-08-01T10:32:35;33.20;32.72
72288;SHT31;60221;45.696;16.076;2022-08-01T10:35:05;33.30;32.04
72288;SHT31;60221;45.696;16.076;2022-08-01T10:37:35;33.37;31.86
72288;SHT31;60221;45.696;16.076;2022-08-01T10:40:03;33.37;32.16
72288;SHT31;60221;45.696;16.076;2022-08-01T10:42:31;33.44;32.64
72288;SHT31;60221;45.696;16.076;2022-08-01T10:44:58;33.48;32.61
72288;SHT31;60221;45.696;16.076;2022-08-01T10:47:33;33.55;32.22
72288;SHT31;60221;45.696;16.076;2022-08-01T10:53:17;33.69;32.28
72288;SHT31;60221;45.696;16.076;2022-08-01T10:56:02;33.73;32.20
72288;SHT31;60221;45.696;16.076;2022-08-01T10:58:33;33.77;31.89
72288;SHT31;60221;45.696;16.076;2022-08-01T11:01:27;33.80;31.79
72288;SHT31;60221;45.696;16.076;2022-08-01T11:04:10;33.86;32.09
72288;SHT31;60221;45.696;16.076;2022-08-01T11:09:45;34.02;32.01
72288;SHT31;60221;45.696;16.076;2022-08-01T11:12:15;34.10;32.09
72288;SHT31;60221;45.696;16.076;2022-08-01T11:20:24;34.27;31.25
72288;SHT31;60221;45.696;16.076;2022-08-01T11:28:18;34.48;30.15
72288;SHT31;60221;45.696;16.076;2022-08-01T11:36:17;34.62;29.58
72288;SHT31;60221;45.696;16.076;2022-08-01T11:41:35;34.69;29.60
72288;SHT31;60221;45.696;16.076;2022-08-01T11:44:22;34.74;29.75
72288;SHT31;60221;45.696;16.076;2022-08-01T11:47:03;34.77;29.62
72288;SHT31;60221;45.696;16.076;2022-08-01T11:52:23;34.82;29.17
72288;SHT31;60221;45.696;16.076;2022-08-01T11:57:26;34.82;28.61
72288;SHT31;60221;45.696;16.076;2022-08-01T11:59:55;34.72;28.84
72288;SHT31;60221;45.696;16.076;2022-08-01T12:02:28;34.67;28.70
72288;SHT31;60221;45.696;16.076;2022-08-01T12:05:05;34.64;28.95
72288;SHT31;60221;45.696;16.076;2022-08-01T12:07:35;34.60;29.05
72288;SHT31;60221;45.696;16.076;2022-08-01T12:10:14;34.64;29.18
72288;SHT31;60221;45.696;16.076;2022-08-01T12:12:46;34.64;29.53
72288;SHT31;60221;45.696;16.076;2022-08-01T12:15:15;34.65;29.40
72288;SHT31;60221;45.696;16.076;2022-08-01T12:17:47;34.68;29.01
72288;SHT31;60221;45.696;16.076;2022-08-01T12:20:20;34.69;27.97
72288;SHT31;60221;45.696;16.076;2022-08-01T12:22:53;34.67;27.88
72288;SHT31;60221;45.696;16.076;2022-08-01T12:25:20;34.60;28.48
72288;SHT31;60221;45.696;16.076;2022-08-01T12:27:48;34.55;28.83
72288;SHT31;60221;45.696;16.076;2022-08-01T12:30:18;34.60;28.87
72288;SHT31;60221;45.696;16.076;2022-08-01T12:32:47;34.65;28.88
72288;SHT31;60221;45.696;16.076;2022-08-01T12:35:17;34.69;29.09
72288;SHT31;60221;45.696;16.076;2022-08-01T12:37:47;34.77;29.24
72288;SHT31;60221;45.696;16.076;2022-08-01T12:40:25;34.82;28.73
72288;SHT31;60221;45.696;16.076;2022-08-01T12:42:59;34.84;28.80
72288;SHT31;60221;45.696;16.076;2022-08-01T12:45:35;34.88;28.46
72288;SHT31;60221;45.696;16.076;2022-08-01T12:48:07;34.82;27.98
72288;SHT31;60221;45.696;16.076;2022-08-01T12:50:35;34.81;28.20
72288;SHT31;60221;45.696;16.076;2022-08-01T12:53:03;34.72;28.15
72288;SHT31;60221;45.696;16.076;2022-08-01T12:55:29;34.54;27.73
72288;SHT31;60221;45.696;16.076;2022-08-01T12:58:11;34.41;28.03
72288;SHT31;60221;45.696;16.076;2022-08-01T13:00:40;34.36;28.56
72288;SHT31;60221;45.696;16.076;2022-08-01T13:03:12;34.33;28.50
72288;SHT31;60221;45.696;16.076;2022-08-01T13:05:48;34.27;27.91
72288;SHT31;60221;45.696;16.076;2022-08-01T13:08:25;34.12;28.61
72288;SHT31;60221;45.696;16.076;2022-08-01T13:11:03;34.00;28.56
72288;SHT31;60221;45.696;16.076;2022-08-01T13:16:14;33.93;28.78
72288;SHT31;60221;45.696;16.076;2022-08-01T13:18:48;33.88;28.60
72288;SHT31;60221;45.696;16.076;2022-08-01T13:21:26;33.86;28.69
72288;SHT31;60221;45.696;16.076;2022-08-01T13:24:09;33.86;28.70
72288;SHT31;60221;45.696;16.076;2022-08-01T13:26:53;33.75;28.68
72288;SHT31;60221;45.696;16.076;2022-08-01T13:29:36;33.61;28.86
72288;SHT31;60221;45.696;16.076;2022-08-01T13:32:21;33.54;29.31
72288;SHT31;60221;45.696;16.076;2022-08-01T13:34:48;33.45;29.37
72288;SHT31;60221;45.696;16.076;2022-08-01T13:37:14;33.41;29.78
72288;SHT31;60221;45.696;16.076;2022-08-01T13:39:44;33.49;30.07
72288;SHT31;60221;45.696;16.076;2022-08-01T13:42:15;33.59;29.97
72288;SHT31;60221;45.696;16.076;2022-08-01T13:44:43;33.76;29.79
72288;SHT31;60221;45.696;16.076;2022-08-01T13:47:12;33.88;29.51
72288;SHT31;60221;45.696;16.076;2022-08-01T13:49:38;34.00;29.22
72288;SHT31;60221;45.696;16.076;2022-08-01T13:52:05;34.13;29.44
72288;SHT31;60221;45.696;16.076;2022-08-01T13:54:33;34.20;29.52
72288;SHT31;60221;45.696;16.076;2022-08-01T13:57:00;34.23;29.52
72288;SHT31;60221;45.696;16.076;2022-08-01T13:59:26;34.20;29.60
72288;SHT31;60221;45.696;16.076;2022-08-01T14:01:52;34.22;29.36
72288;SHT31;60221;45.696;16.076;2022-08-01T14:04:18;34.24;29.43
72288;SHT31;60221;45.696;16.076;2022-08-01T14:06:45;34.31;29.51
72288;SHT31;60221;45.696;16.076;2022-08-01T14:09:11;34.33;29.50
72288;SHT31;60221;45.696;16.076;2022-08-01T14:11:37;34.24;29.01
72288;SHT31;60221;45.696;16.076;2022-08-01T14:14:04;34.06;29.32
72288;SHT31;60221;45.696;16.076;2022-08-01T14:16:30;33.91;29.45
72288;SHT31;60221;45.696;16.076;2022-08-01T14:18:56;33.85;29.72
72288;SHT31;60221;45.696;16.076;2022-08-01T14:21:23;33.76;29.73
72288;SHT31;60221;45.696;16.076;2022-08-01T14:23:49;33.59;29.50
72288;SHT31;60221;45.696;16.076;2022-08-01T14:26:15;33.45;29.68
72288;SHT31;60221;45.696;16.076;2022-08-01T14:28:41;33.28;30.16
72288;SHT31;60221;45.696;16.076;2022-08-01T14:31:07;33.13;30.06
72288;SHT31;60221;45.696;16.076;2022-08-01T14:33:33;33.00;30.21
72288;SHT31;60221;45.696;16.076;2022-08-01T14:36:00;32.87;30.51
72288;SHT31;60221;45.696;16.076;2022-08-01T14:38:26;32.79;30.66
72288;SHT31;60221;45.696;16.076;2022-08-01T14:40:52;32.69;30.84
72288;SHT31;60221;45.696;16.076;2022-08-01T14:43:20;32.63;30.56
72288;SHT31;60221;45.696;16.076;2022-08-01T14:45:48;32.59;30.72
72288;SHT31;60221;45.696;16.076;2022-08-01T14:48:17;32.52;30.91
72288;SHT31;60221;45.696;16.076;2022-08-01T14:50:43;32.49;31.23
72288;SHT31;60221;45.696;16.076;2022-08-01T14:53:10;32.48;31.19
72288;SHT31;60221;45.696;16.076;2022-08-01T14:55:36;32.46;31.17
72288;SHT31;60221;45.696;16.076;2022-08-01T14:58:02;32.49;31.18
72288;SHT31;60221;45.696;16.076;2022-08-01T15:00:28;32.45;31.36
72288;SHT31;60221;45.696;16.076;2022-08-01T15:02:54;32.39;31.94
72288;SHT31;60221;45.696;16.076;2022-08-01T15:05:21;32.36;32.29
72288;SHT31;60221;45.696;16.076;2022-08-01T15:07:47;32.34;32.62
72288;SHT31;60221;45.696;16.076;2022-08-01T15:10:13;32.35;33.00
72288;SHT31;60221;45.696;16.076;2022-08-01T15:12:39;32.31;33.01
72288;SHT31;60221;45.696;16.076;2022-08-01T15:15:07;32.25;32.95
72288;SHT31;60221;45.696;16.076;2022-08-01T15:17:33;32.19;33.04
72288;SHT31;60221;45.696;16.076;2022-08-01T15:20:04;32.11;33.08
72288;SHT31;60221;45.696;16.076;2022-08-01T15:22:32;32.03;33.32
72288;SHT31;60221;45.696;16.076;2022-08-01T15:25:00;31.92;33.66
72288;SHT31;60221;45.696;16.076;2022-08-01T15:27:28;31.84;33.94
72288;SHT31;60221;45.696;16.076;2022-08-01T15:29:56;31.79;34.05
72288;SHT31;60221;45.696;16.076;2022-08-01T15:32:23;31.71;34.16
72288;SHT31;60221;45.696;16.076;2022-08-01T15:34:49;31.63;32.73
72288;SHT31;60221;45.696;16.076;2022-08-01T15:37:17;31.59;32.90
72288;SHT31;60221;45.696;16.076;2022-08-01T15:39:43;31.47;32.86
72288;SHT31;60221;45.696;16.076;2022-08-01T15:42:13;31.37;33.31
72288;SHT31;60221;45.696;16.076;2022-08-01T15:44:40;31.30;33.82
72288;SHT31;60221;45.696;16.076;2022-08-01T15:47:08;31.24;33.84
72288;SHT31;60221;45.696;16.076;2022-08-01T15:49:37;31.15;34.88
72288;SHT31;60221;45.696;16.076;2022-08-01T15:52:06;31.02;33.95
72288;SHT31;60221;45.696;16.076;2022-08-01T15:54:35;30.89;34.27
72288;SHT31;60221;45.696;16.076;2022-08-01T15:57:01;30.82;34.50
72288;SHT31;60221;45.696;16.076;2022-08-01T15:59:28;30.69;34.64
72288;SHT31;60221;45.696;16.076;2022-08-01T16:01:54;30.64;34.66
72288;SHT31;60221;45.696;16.076;2022-08-01T16:04:20;30.56;34.79
72288;SHT31;60221;45.696;16.076;2022-08-01T16:06:46;30.53;34.89
72288;SHT31;60221;45.696;16.076;2022-08-01T16:09:14;30.50;35.07
72288;SHT31;60221;45.696;16.076;2022-08-01T16:11:40;30.50;35.35
72288;SHT31;60221;45.696;16.076;2022-08-01T16:14:06;30.44;35.63